ADDS METAR Data INFO
IDs: Format: Raw Decoded Include TAF

Data at: 1426 UTC 22 Feb 2018

KBDH 221415Z AUTO 12007KT 10SM CLR M13/M16 A3055 RMK AO2
KBDH 221355Z AUTO 11007KT 10SM CLR M13/M17 A3054 RMK AO2
KBDH 221335Z AUTO 11007KT 10SM CLR M15/M18 A3053 RMK AO2
KBDH 221315Z AUTO 11007KT 10SM CLR M16/M18 A3054 RMK AO2
KBDH 221255Z AUTO 11006KT 10SM CLR M15/M18 A3054 RMK AO2
KBDH 221235Z AUTO 10006KT 10SM CLR M16/M18 A3054 RMK AO2
KBDH 221215Z AUTO 10008KT 10SM CLR M17/M19 A3055 RMK AO2
KBDH 221155Z AUTO 10005KT 10SM CLR M17/M19 A3056 RMK AO2
KBDH 221135Z AUTO 09006KT 10SM CLR M16/M18 A3056 RMK AO2
KBDH 221115Z AUTO 12004KT 10SM CLR M18/M20 A3057 RMK AO2
KBDH 221055Z AUTO 13003KT 10SM CLR M16/M18 A3057 RMK AO2
KBDH 221035Z AUTO 12004KT 10SM CLR M17/M19 A3057 RMK AO2
KBDH 221015Z AUTO 11003KT 10SM CLR M17/M19 A3057 RMK AO2
KBDH 220955Z AUTO 11003KT 10SM CLR M18/M20 A3056 RMK AO2
KBDH 220935Z AUTO 09003KT 10SM CLR M17/M19 A3056 RMK AO2
KBDH 220915Z AUTO 00000KT 10SM CLR M18/M19 A3057 RMK AO2
KBDH 220855Z AUTO 09003KT 10SM CLR M18/M20 A3057 RMK AO2
KBDH 220836Z AUTO 08003KT 10SM CLR M18/M20 A3057 RMK AO2
KBDH 220815Z AUTO 09004KT 10SM CLR M19/M21 A3058 RMK AO2
KBDH 220755Z AUTO 09003KT 10SM CLR M18/M20 A3058 RMK AO2
KBDH 220736Z AUTO 00000KT 10SM CLR M18/M20 A3059 RMK AO2
KBDH 220715Z AUTO 08003KT 10SM CLR M18/M20 A3059 RMK AO2
KBDH 220655Z AUTO 11004KT 10SM CLR M18/M20 A3060 RMK AO2
KBDH 220636Z AUTO 10003KT 10SM CLR M17/M19 A3060 RMK AO2
KBDH 220615Z AUTO 11003KT 10SM CLR M17/M19 A3060 RMK AO2
KBDH 220555Z AUTO 08003KT 10SM CLR M17/M19 A3058 RMK AO2
KBDH 220535Z AUTO 08003KT 10SM CLR M17/M19 A3058 RMK AO2
KBDH 220515Z AUTO 11003KT 10SM CLR M16/M18 A3059 RMK AO2
KBDH 220455Z AUTO 12003KT 10SM CLR M16/M18 A3060 RMK AO2
KBDH 220435Z AUTO 12003KT 10SM CLR M17/M19 A3061 RMK AO2
KBDH 220415Z AUTO 13003KT 10SM CLR M17/M19 A3061 RMK AO2
KBDH 220355Z AUTO 14004KT 10SM CLR M16/M19 A3061 RMK AO2
KBDH 220035Z AUTO 00000KT 10SM CLR M13/M17 A3062 RMK AO2
KBDH 220015Z AUTO 13003KT 10SM CLR M12/M17 A3062 RMK AO2
KBDH 212355Z AUTO 00000KT 10SM CLR M11/M16 A3061 RMK AO2
KBDH 212335Z AUTO 00000KT 10SM CLR M10/M16 A3061 RMK AO2
KBDH 212315Z AUTO 00000KT 10SM CLR M09/M16 A3060 RMK AO2
KBDH 212255Z AUTO 00000KT 10SM CLR M09/M16 A3061 RMK AO2
KBDH 212235Z AUTO 22003KT 10SM CLR M09/M16 A3062 RMK AO2
KBDH 212215Z AUTO 24003KT 10SM CLR M09/M16 A3061 RMK AO2
KBDH 212155Z AUTO 23004KT 10SM CLR M09/M16 A3061 RMK AO2
KBDH 212135Z AUTO 25004KT 10SM CLR M09/M16 A3061 RMK AO2
KBDH 212115Z AUTO 26004KT 10SM CLR M09/M16 A3061 RMK AO2
KBDH 212055Z AUTO 26004KT 10SM CLR M09/M16 A3060 RMK AO2
KBDH 212035Z AUTO 26004KT 10SM CLR M09/M16 A3060 RMK AO2
KBDH 212015Z AUTO 25004KT 10SM CLR M10/M17 A3060 RMK AO2
KBDH 211955Z AUTO 24005KT 10SM CLR M10/M16 A3060 RMK AO2
KBDH 211935Z AUTO 26005KT 10SM CLR M10/M16 A3061 RMK AO2
KBDH 211915Z AUTO 26006KT 10SM CLR M11/M16 A3061 RMK AO2
KBDH 211855Z AUTO 28007KT 10SM CLR M11/M17 A3061 RMK AO2
KBDH 211835Z AUTO 26007KT 10SM CLR M11/M17 A3061 RMK AO2
KBDH 211815Z AUTO 25007KT 10SM CLR M12/M17 A3062 RMK AO2
KBDH 211755Z AUTO 23008KT 10SM CLR M12/M17 A3062 RMK AO2
KBDH 211735Z AUTO 21005KT 10SM CLR M12/M18 A3062 RMK AO2
KBDH 211715Z AUTO 18003KT 10SM CLR M13/M18 A3062 RMK AO2
KBDH 211655Z AUTO 22005KT 10SM CLR M14/M19 A3061 RMK AO2
KBDH 211635Z AUTO 21005KT 10SM CLR M14/M19 A3060 RMK AO2
KBDH 211615Z AUTO 23004KT 10SM CLR M16/M19 A3058 RMK AO2
KBDH 211555Z AUTO 27006KT 10SM CLR M17/M21 A3056 RMK AO2
KBDH 211535Z AUTO 26006KT 10SM CLR M18/M21 A3056 RMK AO2
KBDH 211515Z AUTO 00000KT 10SM CLR M19/M22 A3056 RMK AO2
KBDH 211455Z AUTO 21003KT 10SM CLR M19/M22 A3056 RMK AO2
KBDH 211435Z AUTO 00000KT 10SM CLR M22/M24 A3054 RMK AO2
KBDH 211415Z AUTO 00000KT 10SM CLR M23/M24 A3053 RMK AO2
KBDH 211355Z AUTO 00000KT 10SM CLR M23/M26 A3053 RMK AO2
KBDH 211335Z AUTO 00000KT 10SM CLR M23/M24 A3053 RMK AO2
KBDH 211315Z AUTO 00000KT 10SM CLR M23/M26 A3053 RMK AO2
KBDH 211255Z AUTO 00000KT 10SM CLR M23/M25 A3052 RMK AO2
KBDH 210755Z AUTO 26003KT 10SM CLR M21/M23 A3043 RMK AO2
KBDH 210735Z AUTO 25004KT 10SM CLR M20/M22 A3043 RMK AO2
KBDH 210715Z AUTO 25004KT 10SM CLR M20/M22 A3042 RMK AO2
KBDH 210655Z AUTO 26004KT 10SM CLR M21/M23 A3041 RMK AO2
KBDH 210635Z AUTO 23004KT 10SM CLR M19/M22 A3040 RMK AO2
KBDH 210615Z AUTO 00000KT 10SM CLR M19/M21 A3039 RMK AO2
KBDH 210555Z AUTO 28004KT 10SM CLR M19/M21 A3038 RMK AO2